Terminal Aerodrome Forecast
Issued by NWS

Home | Current Version | Previous Version | Graphics & Text | Print | Product List | Glossary On
Versions: 1 2 3 4 5 6 7 8 9 10 11 12 13 14 15 16 17 18
000
FTUS43 KBIS 211725 AAA
TAFMOT
TAF AMD
KMOT 211725Z 2117/2218 31011KT P6SM SCT250
     FM212200 34014G22KT P6SM BKN110
     FM220200 32009KT P6SM SCT250
     FM220500 28005KT P6SM BKN100
     FM221500 35010KT P6SM BKN070=

USA.gov is the U.S. government's official web portal to all federal, state and local government web resources and services.